• Join FlightAware (Why Join?)
  • Login
  • US Flag 
11:39PM EDT


 

Airport Tracker/Info


-or-


 

Live Flight TrackerFlight Track Log ✈ N329JB ✈ 02-May-2013 ✈ TJSJ / SJU - KMCO

Flight Track Log - Related Links

Times and Time Zones

All times are in EDT time to prevent confusion due to time zone crossing. See the N329JB flight status page for this flight to view local times or setup timezone preferences in your user account.

Time Position Orientation Groundspeed Altitude Reporting Facility
EDT Latitude Longitude Course Direction KTS MPH feet Rate Location/Type
06:38PM 18.4333 -65.9667 317° Northwest 150 173 1,300  Level San Juan Center
06:39PM 18.4833 -66.0000 328° Northwest 210 242 2,200 1,740 Climbing San Juan Center
06:40PM 18.5167 -66.0500 305° West 240 276 4,900 2,580 Climbing San Juan Center
06:41PM 18.7586 -66.3085 317° Northwest  Level FlightAware Approximate
06:41PM 18.5833 -66.1000 325° Northwest 280 322 7,400  Level San Juan Center
06:42PM 18.8391 -66.3891 317° Northwest  Level FlightAware Approximate
06:42PM 18.6333 -66.1500 317° Northwest 280 322 9,900  Level San Juan Center
06:43PM 18.9196 -66.4696 317° Northwest  Level FlightAware Approximate
06:43PM 18.6833 -66.2167 308° West 290 334 12,000  Level San Juan Center
06:44PM 19.0002 -66.5501 317° Northwest  Level FlightAware Approximate
06:44PM 18.7500 -66.3000 310° West 350 403 12,800  Level San Juan Center
06:45PM 18.8167 -66.3833 310° West 380 437 14,800 1,860 Climbing San Juan Center
06:46PM 18.8833 -66.4667 310° West 380 437 16,600 1,680 Climbing San Juan Center
06:47PM 18.9500 -66.5500 310° West 390 449 18,200 1,500 Climbing San Juan Center
06:48PM 19.0333 -66.6500 311° West 400 460 19,700 1,380 Climbing San Juan Center
06:49PM 19.1000 -66.7333 310° West 410 472 21,000 1,440 Climbing San Juan Center
06:50PM 19.1833 -66.8333 311° West 430 495 22,700 1,620 Climbing San Juan Center
06:51PM 19.2333 -66.9000 308° West 390 449 24,300 1,380 Climbing San Juan Center
06:52PM 19.3167 -67.0000 311° West 410 472 25,500 1,080 Climbing San Juan Center
06:53PM 19.3833 -67.0833 310° West 410 472 26,500 1,080 Climbing San Juan Center
06:54PM 19.4667 -67.1833 311° West 410 472 27,700 900 Climbing San Juan Center
06:55PM 19.5333 -67.2667 310° West 410 472 28,400 600 Climbing San Juan Center
06:56PM 19.6167 -67.3667 312° West 430 495 29,000 960 Climbing San Juan Center
06:57PM 19.6833 -67.4667 305° West 420 483 30,400 1,380 Climbing San Juan Center
06:58PM 19.7667 -67.5667 312° West 400 460 31,800 1,320 Climbing San Juan Center
06:59PM 19.8333 -67.6500 310° West 400 460 33,100 1,080 Climbing San Juan Center
07:00PM 19.9000 -67.7333 310° West 380 437 34,000 420 Climbing San Juan Center
07:01PM 19.9833 -67.8333 312° West 400 460 34,000  Level San Juan Center
07:02PM 20.0500 -67.9167 310° West 400 460 34,000  Level San Juan Center
07:03PM 20.1081 -68.0044 305° West 402 463 34,000  Level Miami Center
07:04PM 20.1839 -68.0922 313° West 423 487 34,000  Level Miami Center
07:05PM 20.2575 -68.1822 311° West 418 481 34,000  Level Miami Center
07:06PM 20.3158 -68.2558 310° West 418 481 34,000  Level Miami Center
07:07PM 20.3839 -68.3597 305° West 403 464 34,000  Level Miami Center
07:08PM 20.4472 -68.4553 305° West 398 458 34,000  Level Miami Center
07:09PM 20.5169 -68.5503 308° West 398 458 34,000  Level Miami Center
07:10PM 20.5825 -68.6481 306° West 404 465 34,000  Level Miami Center
07:11PM 20.6417 -68.7442 303° West 404 465 34,000  Level Miami Center
07:12PM 20.7092 -68.8419 306° West 404 465 34,000  Level Miami Center
07:13PM 20.7767 -68.9375 307° West 409 471 34,000  Level Miami Center
07:14PM 20.8400 -69.0358 305° West 409 471 34,000  Level Miami Center
07:15PM 20.9053 -69.1339 305° West 409 471 34,000  Level Miami Center
07:16PM 20.9706 -69.2300 306° West 409 471 34,000  Level Miami Center
07:17PM 21.0356 -69.3261 306° West 409 471 34,000  Level Miami Center
07:18PM 21.0989 -69.4247 305° West 409 471 34,000  Level Miami Center
07:19PM 21.1597 -69.5236 303° West 409 471 34,000  Level Miami Center
07:20PM 21.2247 -69.6200 306° West 409 471 34,000  Level Miami Center
07:21PM 21.2900 -69.7211 305° West 409 471 34,000  Level Miami Center
07:22PM 21.3528 -69.8178 305° West 409 471 34,000  Level Miami Center
07:23PM 21.4175 -69.9147 306° West 409 471 34,000  Level Miami Center
07:24PM 21.4844 -70.0136 306° West 409 471 34,000  Level Miami Center
07:25PM 21.5475 -70.1150 304° West 409 471 34,000  Level Miami Center
07:26PM 21.6100 -70.2100 305° West 409 471 34,000  Level Miami Center
07:27PM 21.6725 -70.3094 304° West 409 471 34,000  Level Miami Center
07:28PM 21.7372 -70.4089 305° West 409 471 34,000  Level Miami Center
07:29PM 21.8019 -70.5086 305° West 409 471 34,000  Level Miami Center
07:30PM 21.8644 -70.6039 305° West 409 471 34,000  Level Miami Center
07:31PM 21.9356 -70.7144 305° West 409 471 34,000  Level Miami Center
07:32PM 21.9978 -70.8122 304° West 409 471 34,000  Level Miami Center
07:33PM 22.0622 -70.9122 305° West 409 471 34,000  Level Miami Center
07:34PM 22.1247 -71.0125 304° West 409 471 34,000  Level Miami Center
07:35PM 22.1911 -71.1125 306° West 409 471 34,000  Level Miami Center
07:36PM 22.2553 -71.2150 304° West 409 471 34,000  Level Miami Center
07:37PM 22.3175 -71.3178 303° West 409 471 34,000  Level Miami Center
07:38PM 22.3817 -71.4139 306° West 409 471 34,000  Level Miami Center
07:39PM 22.4436 -71.5167 303° West 409 471 34,000  Level Miami Center
07:40PM 22.5075 -71.6153 305° West 409 471 34,000  Level Miami Center
07:41PM 22.5717 -71.7161 305° West 414 476 34,000 60 Level Miami Center
07:42PM 22.6336 -71.8192 303° West 414 476 34,200 900 Climbing Miami Center
07:43PM 22.6953 -71.9158 305° West 404 465 35,800 900 Climbing Miami Center
07:44PM 22.7547 -72.0147 303° West 404 465 36,000 60 Climbing Miami Center
07:45PM 22.8164 -72.1139 304° West 404 465 36,000  Level Miami Center
07:46PM 22.8800 -72.2106 306° West 399 459 36,000  Level Miami Center
07:47PM 22.9392 -72.3100 303° West 399 459 36,000  Level Miami Center
07:48PM 23.0028 -72.4069 305° West 399 459 36,000  Level Miami Center
07:49PM 23.0497 -72.5092 297° West 395 455 36,000  Level Miami Center
07:50PM 23.1214 -72.6061 309° West 391 450 36,000  Level Miami Center
07:51PM 23.1758 -72.6856 307° West 402 463 36,000  Level Miami Center
07:52PM 23.2372 -72.7942 302° West 396 456 36,000  Level Miami Center
07:53PM 23.2961 -72.8919 303° West 396 456 36,000  Level Miami Center
07:54PM 23.3656 -72.9939 307° West 410 472 36,000  Level Miami Center
07:55PM 23.4247 -73.0939 303° West 410 472 36,000  Level Miami Center
07:56PM 23.4856 -73.1961 303° West 410 472 36,000  Level Miami Center
07:57PM 23.5486 -73.2986 304° West 410 472 36,000  Level Miami Center
07:58PM 23.6053 -73.3967 302° West 400 460 36,000  Level Miami Center
07:59PM 23.6703 -73.4947 306° West 400 460 36,000  Level Miami Center
08:00PM 23.7289 -73.5953 302° West 405 466 36,000  Level Miami Center
08:01PM 23.7872 -73.6936 303° West 405 466 36,000  Level Miami Center
08:02PM 23.8522 -73.7942 305° West 400 460 36,000  Level Miami Center
08:03PM 23.9083 -73.8928 302° West 400 460 36,000  Level Miami Center
08:04PM 23.9711 -73.9936 304° West 400 460 36,000  Level Miami Center
08:05PM 24.0314 -74.0947 303° West 400 460 36,000  Level Miami Center
08:06PM 24.0939 -74.1956 304° West 400 460 36,000  Level Miami Center
08:07PM 24.1519 -74.2947 303° West 400 460 36,000  Level Miami Center
08:08PM 24.2144 -74.3981 304° West 400 460 36,000  Level Miami Center
08:09PM 24.2725 -74.4972 303° West 405 466 36,000  Level Miami Center
08:10PM 24.3389 -74.6008 305° West 411 473 36,000  Level Miami Center
08:11PM 24.3967 -74.7003 303° West 406 467 36,000  Level Miami Center
08:12PM 24.4589 -74.8042 303° West 406 467 36,000  Level Miami Center
08:13PM 24.5186 -74.9083 302° West 406 467 36,000  Level Miami Center
08:14PM 24.5806 -75.0125 303° West 411 473 36,000  Level Miami Center
08:15PM 24.6425 -75.1167 303° West 406 467 36,000  Level Miami Center
08:16PM 24.7022 -75.2186 303° West 406 467 36,000  Level Miami Center
08:17PM 24.7661 -75.3253 303° West 406 467 36,000  Level Miami Center
08:18PM 24.8278 -75.4300 303° West 412 474 36,000  Level Miami Center
08:19PM 24.8892 -75.5392 302° West 412 474 36,000  Level Miami Center
08:20PM 24.9467 -75.6439 301° West 412 474 36,000  Level Miami Center
08:21PM 25.0100 -75.7467 304° West 406 467 36,000  Level Miami Center
08:22PM 25.0736 -75.8561 303° West 412 474 36,000  Level Miami Center
08:23PM 25.1308 -75.9611 301° West 412 474 36,000  Level Miami Center
08:24PM 25.1961 -76.0686 304° West 412 474 36,000  Level Miami Center
08:25PM 25.2594 -76.1786 302° West 412 474 36,000  Level Miami Center
08:26PM 25.3183 -76.2839 302° West 412 474 36,000  Level Miami Center
08:27PM 25.3836 -76.3917 304° West 412 474 36,000  Level Miami Center
08:28PM 25.4422 -76.4975 302° West 412 474 36,000  Level Miami Center
08:29PM 25.5011 -76.6008 302° West 406 467 36,000  Level Miami Center
08:30PM 25.5578 -76.7067 301° West 406 467 36,000  Level Miami Center
08:31PM 25.6164 -76.8103 302° West 406 467 36,000  Level Miami Center
08:32PM 25.6769 -76.9142 303° West 406 467 36,000  Level Miami Center
08:33PM 25.7375 -77.0203 302° West 411 473 36,000 -420 Level Miami Center
08:34PM 25.7958 -77.1264 301° West 411 473 35,200 -900 Descending Miami Center
08:35PM 25.8603 -77.2353 303° West 413 475 34,300 -960 Descending Miami Center
08:36PM 25.9206 -77.3508 300° West 419 482 33,300 -1,020 Descending Miami Center
08:37PM 25.9850 -77.4597 303° West 419 482 32,300 -1,080 Descending Miami Center
08:38PM 26.0533 -77.5872 301° West 424 488 31,200 -1,080 Descending Miami Center
08:39PM 26.1175 -77.6964 303° West 429 494 30,200 -1,020 Descending Miami Center
08:40PM 26.1794 -77.8103 301° West 429 494 29,200 -1,020 Descending Miami Center
08:41PM 26.2436 -77.9292 301° West 429 494 28,200 -600 Descending Miami Center
08:42PM 26.3075 -78.0408 303° West 429 494 28,000 -120 Descending Miami Center
08:43PM 26.3692 -78.1528 302° West 429 494 28,000  Level Miami Center
08:44PM 26.4267 -78.2625 300° West 419 482 28,000  Level Miami Center
08:45PM 26.5050 -78.3608 312° West 419 482 28,000  Level Miami Center
08:46PM 26.5961 -78.4364 323° Northwest 408 470 28,000  Level Miami Center
08:47PM 26.6578 -78.5394 304° West 403 464 28,000  Level Miami Center
08:48PM 26.7128 -78.6475 300° West 403 464 28,000  Level Miami Center
08:49PM 26.7719 -78.7531 302° West 403 464 28,000  Level Miami Center
08:50PM 26.8311 -78.8656 301° West 398 458 28,000  Level Miami Center
08:51PM 26.8881 -78.9783 300° West 409 471 28,000  Level Miami Center
08:52PM 26.9447 -79.0914 299° West 415 478 28,000  Level Miami Center
08:53PM 27.0014 -79.2044 299° West 420 483 28,000  Level Miami Center
08:54PM 27.0581 -79.3175 299° West 420 483 28,000 -180 Level Miami Center
08:55PM 27.1106 -79.4214 300° West 420 483 27,700 -720 Descending Miami Center
08:56PM 27.1669 -79.5344 299° West 420 483 26,600 -1,260 Descending Miami Center
08:57PM 27.2356 -79.6669 300° West 437 503 25,200 -1,320 Descending Miami Center
08:58PM 27.2939 -79.7853 299° West 444 511 24,000 -600 Descending Miami Center
08:59PM 27.3458 -79.8964 298° West 439 505 24,000 -300 Level Miami Center
09:00PM 27.4058 -80.0150 300° West 439 505 23,500 -960 Descending Miami Center
09:01PM 27.4639 -80.1336 299° West 439 505 22,100 -1,500 Descending Miami Center
09:02PM 27.5217 -80.2500 299° West 439 505 20,600 -1,440 Descending Miami Center
09:03PM 27.5775 -80.3594 300° West 427 491 19,300 -1,380 Descending Miami Center
09:04PM 27.6314 -80.4619 301° West 407 468 17,900 -1,320 Descending Miami Center
09:05PM 27.6850 -80.5714 299° West 398 458 16,700 -1,320 Descending Miami Center
09:06PM 27.7403 -80.6906 298° West 393 452 15,300 -1,260 Descending Miami Center
09:07PM 27.7919 -80.7908 300° West 382 440 14,200 -1,200 Descending Miami Center
09:10PM 27.9167 -81.0333 300° West 358 412 11,300 -960 Descending Orlando TRACON
09:11PM 27.9667 -81.1167 304° West 354 407 11,000 -240 Descending Orlando TRACON
09:11PM 28.0333 -81.1500 336° Northwest 353 406 11,000 -300 Level Orlando TRACON
09:12PM 28.1500 -81.1833 346° North 341 392 10,500 -660 Descending Orlando TRACON
09:13PM 28.2167 -81.1833 360° North 296 341 9,700 -840 Descending Orlando TRACON
09:14PM 28.3000 -81.1833 360° North 296 341 9,000 -420 Descending Orlando TRACON
09:15PM 28.3833 -81.1833 360° North 299 344 8,900 -780 Descending Orlando TRACON
09:16PM 28.4667 -81.1833 360° North 289 333 7,500 -1,740 Descending Orlando TRACON
09:17PM 28.5500 -81.2000 350° North 283 326 5,500 -1,920 Descending Orlando TRACON
09:19PM 28.6333 -81.2667 325° Northwest 274 315 3,000 -1,320 Descending Orlando TRACON
09:19PM 28.6333 -81.3000 270° West 218 251 2,900 -540 Descending Orlando TRACON
09:21PM 28.5500 -81.3333 199° South 181 208 2,000 -660 Descending Orlando TRACON
09:22PM 28.5167 -81.3333 180° South 130 150 1,400 -720 Descending Orlando TRACON
09:22PM 28.5000 -81.3333 180° South 134 154 900 -720 Descending Orlando TRACON